LOT3919 EPWA-EPKK
Flight info
| Callsign | LOT3919 |
|---|---|
| Flight time | 0h 31m |
| Altitude | 24000 |
| Route | EVINA DCT KUKAM |
| Aircraft | B38M/M-SDE1FGHILORVWXY/HB1 |
Departure
| Time | 2026-05-06 13:25 |
|---|---|
| Airport | Warsaw Chopin Airport (EPWA) |
Arrival
| Time | 2026-05-06 13:57 |
|---|---|
| Airport | Kraków John Paul II International Airport (EPKK) |
| Time | Latitude | Longitude | Altitude | Speed | Heading |
|---|---|---|---|---|---|
| 2026-05-06 12:31 | 52.17993 | 20.96285 | 351 ft | 0 kts | 185° |
| 2026-05-06 13:15 | 52.18000 | 20.96286 | 359 ft | 4 kts | 182° |
| 2026-05-06 13:15 | 52.18022 | 20.96286 | 360 ft | 2 kts | 200° |
| 2026-05-06 13:15 | 52.18029 | 20.96299 | 353 ft | 2 kts | 258° |
| 2026-05-06 13:15 | 52.18030 | 20.96314 | 353 ft | 0 kts | 264° |
| 2026-05-06 13:19 | 52.18030 | 20.96308 | 353 ft | 2 kts | 264° |
| 2026-05-06 13:19 | 52.18028 | 20.96272 | 356 ft | 4 kts | 264° |
| 2026-05-06 13:20 | 52.18020 | 20.96211 | 352 ft | 7 kts | 257° |
| 2026-05-06 13:20 | 52.18007 | 20.96115 | 351 ft | 11 kts | 258° |
| 2026-05-06 13:20 | 52.17980 | 20.95976 | 354 ft | 15 kts | 241° |
| 2026-05-06 13:20 | 52.17889 | 20.95964 | 352 ft | 16 kts | 153° |
| 2026-05-06 13:21 | 52.17784 | 20.96056 | 349 ft | 19 kts | 152° |
| 2026-05-06 13:21 | 52.17667 | 20.96159 | 354 ft | 20 kts | 152° |
| 2026-05-06 13:21 | 52.17532 | 20.96280 | 349 ft | 23 kts | 153° |
| 2026-05-06 13:21 | 52.17375 | 20.96416 | 344 ft | 28 kts | 152° |
| 2026-05-06 13:22 | 52.17194 | 20.96573 | 342 ft | 31 kts | 152° |
| 2026-05-06 13:22 | 52.17007 | 20.96734 | 349 ft | 31 kts | 152° |
| 2026-05-06 13:22 | 52.16813 | 20.96907 | 346 ft | 33 kts | 151° |
| 2026-05-06 13:22 | 52.16635 | 20.97057 | 338 ft | 22 kts | 149° |
| 2026-05-06 13:23 | 52.16567 | 20.97119 | 336 ft | 12 kts | 151° |
| 2026-05-06 13:23 | 52.16485 | 20.97195 | 337 ft | 15 kts | 149° |
| 2026-05-06 13:23 | 52.16433 | 20.97205 | 334 ft | 0 kts | 245° |
| 2026-05-06 13:23 | 52.16435 | 20.97199 | 335 ft | 2 kts | 304° |
| 2026-05-06 13:24 | 52.16444 | 20.97177 | 336 ft | 0 kts | 295° |
| 2026-05-06 13:24 | 52.16464 | 20.97105 | 338 ft | 31 kts | 295° |
| 2026-05-06 13:24 | 52.16646 | 20.96456 | 350 ft | 92 kts | 294° |
| 2026-05-06 13:25 | 52.16986 | 20.95243 | 345 ft | 141 kts | 294° |
| 2026-05-06 13:25 | 52.17424 | 20.93708 | 719 ft | 147 kts | 292° |
| 2026-05-06 13:25 | 52.17869 | 20.92237 | 1314 ft | 146 kts | 288° |
| 2026-05-06 13:25 | 52.18256 | 20.90633 | 1685 ft | 155 kts | 280° |
| 2026-05-06 13:26 | 52.18405 | 20.88870 | 2202 ft | 163 kts | 263° |
| 2026-05-06 13:26 | 52.18153 | 20.86960 | 2721 ft | 182 kts | 252° |
| 2026-05-06 13:26 | 52.17792 | 20.84831 | 3183 ft | 210 kts | 253° |
| 2026-05-06 13:26 | 52.17407 | 20.82413 | 3841 ft | 223 kts | 254° |
| 2026-05-06 13:27 | 52.17027 | 20.79925 | 4779 ft | 234 kts | 253° |
| 2026-05-06 13:27 | 52.16308 | 20.77476 | 5422 ft | 250 kts | 227° |
| 2026-05-06 13:27 | 52.14859 | 20.75905 | 6383 ft | 255 kts | 204° |
| 2026-05-06 13:27 | 52.13166 | 20.75045 | 7277 ft | 261 kts | 200° |
| 2026-05-06 13:28 | 52.11416 | 20.74149 | 8186 ft | 266 kts | 200° |
| 2026-05-06 13:28 | 52.09648 | 20.73223 | 9131 ft | 269 kts | 201° |
| 2026-05-06 13:28 | 52.07857 | 20.72275 | 10050 ft | 273 kts | 201° |
| 2026-05-06 13:28 | 52.05994 | 20.71278 | 10588 ft | 291 kts | 201° |
| 2026-05-06 13:29 | 52.04026 | 20.70212 | 11173 ft | 305 kts | 201° |
| 2026-05-06 13:29 | 52.01970 | 20.69102 | 11890 ft | 315 kts | 201° |
| 2026-05-06 13:29 | 51.99881 | 20.67984 | 12846 ft | 318 kts | 200° |
| 2026-05-06 13:29 | 51.97763 | 20.66857 | 13745 ft | 323 kts | 200° |
| 2026-05-06 13:30 | 51.95612 | 20.65714 | 14546 ft | 328 kts | 200° |
| 2026-05-06 13:30 | 51.93445 | 20.64567 | 15508 ft | 328 kts | 200° |
| 2026-05-06 13:30 | 51.91256 | 20.63409 | 16369 ft | 333 kts | 200° |
| 2026-05-06 13:30 | 51.89045 | 20.62240 | 17231 ft | 336 kts | 201° |
| 2026-05-06 13:31 | 51.86808 | 20.61058 | 18080 ft | 340 kts | 201° |
| 2026-05-06 13:31 | 51.84549 | 20.59865 | 18807 ft | 343 kts | 200° |
| 2026-05-06 13:31 | 51.82265 | 20.58661 | 19507 ft | 347 kts | 200° |
| 2026-05-06 13:31 | 51.79992 | 20.57465 | 20203 ft | 350 kts | 200° |
| 2026-05-06 13:32 | 51.77666 | 20.56242 | 20892 ft | 353 kts | 200° |
| 2026-05-06 13:32 | 51.75313 | 20.55007 | 21572 ft | 357 kts | 200° |
| 2026-05-06 13:32 | 51.72941 | 20.53763 | 22241 ft | 361 kts | 200° |
| 2026-05-06 13:32 | 51.70537 | 20.52503 | 22912 ft | 364 kts | 200° |
| 2026-05-06 13:33 | 51.68113 | 20.51236 | 23502 ft | 369 kts | 200° |
| 2026-05-06 13:33 | 51.65652 | 20.49949 | 23683 ft | 372 kts | 200° |
| 2026-05-06 13:33 | 51.63173 | 20.48655 | 23735 ft | 376 kts | 200° |
| 2026-05-06 13:33 | 51.60675 | 20.47352 | 23765 ft | 377 kts | 200° |
| 2026-05-06 13:34 | 51.58174 | 20.46051 | 23770 ft | 377 kts | 200° |
| 2026-05-06 13:34 | 51.55671 | 20.44750 | 23774 ft | 378 kts | 200° |
| 2026-05-06 13:34 | 51.53170 | 20.43452 | 23776 ft | 378 kts | 200° |
| 2026-05-06 13:34 | 51.50699 | 20.42171 | 23777 ft | 378 kts | 200° |
| 2026-05-06 13:35 | 51.48198 | 20.40876 | 23778 ft | 378 kts | 200° |
| 2026-05-06 13:35 | 51.45692 | 20.39580 | 23782 ft | 379 kts | 200° |
| 2026-05-06 13:35 | 51.43183 | 20.38283 | 23780 ft | 379 kts | 200° |
| 2026-05-06 13:35 | 51.40674 | 20.36989 | 23779 ft | 379 kts | 200° |
| 2026-05-06 13:36 | 51.38161 | 20.35687 | 23782 ft | 379 kts | 200° |
| 2026-05-06 13:36 | 51.35674 | 20.34389 | 23723 ft | 370 kts | 200° |
| 2026-05-06 13:36 | 51.33255 | 20.33130 | 23465 ft | 362 kts | 200° |
| 2026-05-06 13:36 | 51.30861 | 20.31918 | 22953 ft | 361 kts | 197° |
| 2026-05-06 13:37 | 51.28387 | 20.31282 | 22536 ft | 359 kts | 187° |
| 2026-05-06 13:37 | 51.25917 | 20.30914 | 22191 ft | 353 kts | 190° |
| 2026-05-06 13:37 | 51.23496 | 20.30422 | 21780 ft | 349 kts | 190° |
| 2026-05-06 13:37 | 51.21124 | 20.29947 | 21372 ft | 347 kts | 190° |
| 2026-05-06 13:38 | 51.18737 | 20.29477 | 20964 ft | 345 kts | 190° |
| 2026-05-06 13:38 | 51.16362 | 20.29012 | 20553 ft | 342 kts | 190° |
| 2026-05-06 13:38 | 51.14009 | 20.28553 | 20154 ft | 340 kts | 190° |
| 2026-05-06 13:38 | 51.11669 | 20.28098 | 19752 ft | 338 kts | 190° |
| 2026-05-06 13:39 | 51.09339 | 20.27645 | 19359 ft | 336 kts | 190° |
| 2026-05-06 13:39 | 51.07023 | 20.27195 | 18964 ft | 334 kts | 191° |
| 2026-05-06 13:39 | 51.04717 | 20.26748 | 18571 ft | 333 kts | 191° |
| 2026-05-06 13:39 | 51.02423 | 20.26303 | 18180 ft | 331 kts | 191° |
| 2026-05-06 13:40 | 51.00139 | 20.25861 | 17748 ft | 330 kts | 191° |
| 2026-05-06 13:40 | 50.97863 | 20.25422 | 17322 ft | 328 kts | 190° |
| 2026-05-06 13:40 | 50.95602 | 20.24985 | 16927 ft | 325 kts | 190° |
| 2026-05-06 13:40 | 50.93363 | 20.24553 | 16541 ft | 323 kts | 190° |
| 2026-05-06 13:41 | 50.91140 | 20.24124 | 16160 ft | 321 kts | 190° |
| 2026-05-06 13:41 | 50.88958 | 20.23704 | 15782 ft | 319 kts | 190° |
| 2026-05-06 13:41 | 50.86764 | 20.23282 | 15403 ft | 316 kts | 190° |
| 2026-05-06 13:41 | 50.84577 | 20.22860 | 15028 ft | 314 kts | 190° |
| 2026-05-06 13:42 | 50.82416 | 20.22445 | 14796 ft | 313 kts | 190° |
| 2026-05-06 13:42 | 50.80249 | 20.22029 | 14449 ft | 313 kts | 190° |
| 2026-05-06 13:42 | 50.78077 | 20.21612 | 13958 ft | 316 kts | 189° |
| 2026-05-06 13:42 | 50.75922 | 20.21199 | 13540 ft | 316 kts | 189° |
| 2026-05-06 13:43 | 50.73760 | 20.20785 | 13190 ft | 312 kts | 189° |
| 2026-05-06 13:43 | 50.71613 | 20.20375 | 12877 ft | 307 kts | 189° |
| 2026-05-06 13:43 | 50.69498 | 20.19971 | 12530 ft | 304 kts | 189° |
| 2026-05-06 13:43 | 50.67405 | 20.19571 | 12165 ft | 302 kts | 189° |
| 2026-05-06 13:44 | 50.65322 | 20.19174 | 11801 ft | 300 kts | 189° |
| 2026-05-06 13:44 | 50.63250 | 20.18779 | 11442 ft | 299 kts | 189° |
| 2026-05-06 13:44 | 50.61191 | 20.18387 | 11083 ft | 297 kts | 189° |
| 2026-05-06 13:44 | 50.59144 | 20.17998 | 10732 ft | 296 kts | 189° |
| 2026-05-06 13:45 | 50.57118 | 20.17615 | 10526 ft | 289 kts | 189° |
| 2026-05-06 13:45 | 50.53249 | 20.16883 | 10233 ft | 274 kts | 189° |
| 2026-05-06 13:45 | 50.51380 | 20.16529 | 10104 ft | 266 kts | 190° |
| 2026-05-06 13:46 | 50.49560 | 20.16182 | 9870 ft | 263 kts | 189° |
| 2026-05-06 13:46 | 50.47741 | 20.15838 | 9547 ft | 264 kts | 189° |
| 2026-05-06 13:46 | 50.45920 | 20.15491 | 9205 ft | 263 kts | 189° |
| 2026-05-06 13:46 | 50.44105 | 20.15149 | 8909 ft | 264 kts | 189° |
| 2026-05-06 13:47 | 50.42284 | 20.14806 | 8581 ft | 262 kts | 189° |
| 2026-05-06 13:47 | 50.40465 | 20.14465 | 8281 ft | 263 kts | 189° |
| 2026-05-06 13:47 | 50.38650 | 20.14122 | 7968 ft | 263 kts | 189° |
| 2026-05-06 13:47 | 50.36855 | 20.13781 | 7672 ft | 263 kts | 189° |
| 2026-05-06 13:48 | 50.35035 | 20.13437 | 7369 ft | 263 kts | 189° |
| 2026-05-06 13:48 | 50.33217 | 20.13099 | 7058 ft | 263 kts | 189° |
| 2026-05-06 13:48 | 50.31762 | 20.12825 | 6822 ft | 264 kts | 189° |
| 2026-05-06 13:48 | 50.30527 | 20.12595 | 6607 ft | 266 kts | 189° |
| 2026-05-06 13:49 | 50.28713 | 20.12253 | 6278 ft | 265 kts | 189° |
| 2026-05-06 13:49 | 50.26894 | 20.11911 | 5938 ft | 262 kts | 189° |
| 2026-05-06 13:49 | 50.25099 | 20.11576 | 5628 ft | 257 kts | 189° |
| 2026-05-06 13:49 | 50.24326 | 20.11431 | 5514 ft | 254 kts | 189° |
| 2026-05-06 13:50 | 50.22607 | 20.11109 | 5254 ft | 247 kts | 189° |
| 2026-05-06 13:50 | 50.20923 | 20.10793 | 5048 ft | 237 kts | 190° |
| 2026-05-06 13:50 | 50.19316 | 20.10494 | 4903 ft | 225 kts | 190° |
| 2026-05-06 13:50 | 50.17789 | 20.10211 | 4693 ft | 216 kts | 190° |
| 2026-05-06 13:51 | 50.16345 | 20.09941 | 4496 ft | 207 kts | 190° |
| 2026-05-06 13:51 | 50.14947 | 20.09685 | 4313 ft | 198 kts | 191° |
| 2026-05-06 13:51 | 50.13602 | 20.09423 | 4185 ft | 192 kts | 193° |
| 2026-05-06 13:51 | 50.12439 | 20.08551 | 3945 ft | 182 kts | 227° |
| 2026-05-06 13:52 | 50.11859 | 20.06912 | 3851 ft | 168 kts | 253° |
| 2026-05-06 13:52 | 50.11551 | 20.05189 | 3741 ft | 163 kts | 255° |
| 2026-05-06 13:52 | 50.11283 | 20.03498 | 3606 ft | 159 kts | 255° |
| 2026-05-06 13:52 | 50.11034 | 20.01822 | 3439 ft | 159 kts | 256° |
| 2026-05-06 13:53 | 50.10794 | 20.00131 | 3274 ft | 161 kts | 257° |
| 2026-05-06 13:53 | 50.10552 | 19.98438 | 3091 ft | 160 kts | 256° |
| 2026-05-06 13:53 | 50.10315 | 19.96737 | 2902 ft | 161 kts | 257° |
| 2026-05-06 13:53 | 50.10086 | 19.95025 | 2710 ft | 158 kts | 255° |
| 2026-05-06 13:54 | 50.09856 | 19.93429 | 2494 ft | 149 kts | 256° |
| 2026-05-06 13:54 | 50.09644 | 19.91917 | 2365 ft | 137 kts | 257° |
| 2026-05-06 13:54 | 50.09448 | 19.90498 | 2151 ft | 131 kts | 255° |
| 2026-05-06 13:54 | 50.09259 | 19.89144 | 1962 ft | 130 kts | 254° |
| 2026-05-06 13:55 | 50.09072 | 19.87783 | 1791 ft | 128 kts | 254° |
| 2026-05-06 13:55 | 50.08886 | 19.86430 | 1582 ft | 129 kts | 258° |
| 2026-05-06 13:55 | 50.08737 | 19.85234 | 1467 ft | 130 kts | 255° |
| 2026-05-06 13:55 | 50.08539 | 19.83875 | 1376 ft | 127 kts | 257° |
| 2026-05-06 13:56 | 50.08346 | 19.82521 | 1206 ft | 130 kts | 255° |
| 2026-05-06 13:56 | 50.08151 | 19.81144 | 984 ft | 128 kts | 256° |
| 2026-05-06 13:56 | 50.07955 | 19.79794 | 812 ft | 127 kts | 259° |
| 2026-05-06 13:56 | 50.07804 | 19.78697 | 793 ft | 69 kts | 258° |
| 2026-05-06 13:57 | 50.07734 | 19.78195 | 791 ft | 34 kts | 258° |
| 2026-05-06 13:57 | 50.07688 | 19.77857 | 789 ft | 33 kts | 258° |
| 2026-05-06 13:57 | 50.07641 | 19.77509 | 792 ft | 34 kts | 258° |
| 2026-05-06 13:57 | 50.07592 | 19.77142 | 797 ft | 35 kts | 258° |
| 2026-05-06 13:58 | 50.07522 | 19.76861 | 798 ft | 17 kts | 208° |
| 2026-05-06 13:58 | 50.07410 | 19.76873 | 793 ft | 19 kts | 169° |
| 2026-05-06 13:58 | 50.07314 | 19.76975 | 791 ft | 19 kts | 86° |
| 2026-05-06 13:58 | 50.07340 | 19.77197 | 791 ft | 23 kts | 78° |
| 2026-05-06 13:59 | 50.07380 | 19.77487 | 791 ft | 32 kts | 78° |
| 2026-05-06 13:59 | 50.07434 | 19.77874 | 791 ft | 41 kts | 78° |
| 2026-05-06 13:59 | 50.07499 | 19.78335 | 791 ft | 42 kts | 77° |
| 2026-05-06 13:59 | 50.07563 | 19.78787 | 791 ft | 40 kts | 78° |
| 2026-05-06 14:00 | 50.07615 | 19.79166 | 792 ft | 34 kts | 78° |
| 2026-05-06 14:00 | 50.07666 | 19.79534 | 791 ft | 36 kts | 78° |
| 2026-05-06 14:00 | 50.07702 | 19.79833 | 791 ft | 16 kts | 103° |
| 2026-05-06 14:00 | 50.07606 | 19.79901 | 791 ft | 17 kts | 167° |
| 2026-05-06 14:01 | 50.07486 | 19.79943 | 791 ft | 18 kts | 167° |
| 2026-05-06 14:01 | 50.07406 | 19.80039 | 791 ft | 10 kts | 89° |
| 2026-05-06 14:01 | 50.07384 | 19.80093 | 791 ft | 4 kts | 171° |
| 2026-05-06 14:01 | 50.07343 | 19.80103 | 791 ft | 6 kts | 170° |
| 2026-05-06 14:02 | 50.07330 | 19.80108 | 791 ft | 1 kts | 168° |
| 2026-05-06 14:02 | 50.07328 | 19.80108 | 791 ft | 0 kts | 168° |
| 2026-05-06 14:02 | 50.07323 | 19.80110 | 791 ft | 2 kts | 168° |
| 2026-05-06 14:02 | 50.07321 | 19.80110 | 791 ft | 0 kts | 168° |